PWSweather.com
Personal Weather Stations
Station Observations
CONLIG1
Conlig, Bangor Co DownGB BT23

ConligBangor Co DownGB BT23

Lat: 54.63399887, Lon: -5.671

Elevation: 166

Station Type: Davis Vantage Pro2 Plus

https://www.conligwx.org

Latest ConditionsUpdated 4:49:52 PM GMT Sunday, Jan 26, 2020
Currently Today's Max Today's Min Today's Average
Temperature 40.3°F4.6°C 46.8°F8.2°C 40.3°F4.6°C 44.7°F7.1°C
Dew Point 35.6°F2.0°C 45.7°F7.6°C 35.6°F2.0°C 41.3°F5.2°C
Winds 2.0 mph SW3.2 kmh SW 8.1 mph -13.0 kmh - - 4.6 mph 7.4 kmh
Wind Gusts 7.0 mph11.3 kmh 28.0 mph45.1 kmh - -
Humidity 83% 96% 81% 88%
Pressure 29.57 in1001.4 mb 29.66 in1004.4 mb 29.49 in998.6 mb -
Precipitation - 0.11 in2.8 mm - -
Hour Temp Dew Point Humidity Winds Wind Gusts Pressure Precip Precip Rate Daily Precip Total
04:49 PM 40.3°F4.6°C 35.6°F2.0°C 83% 2.0 mph SW3.2 kmh SW 7.0 mph11.3 kmh 29.57 in1001.4 mb 0.00 in0.0 mm 0.00 in0.0 mm 0.11 in2.8 mm
04:34 PM 40.6°F4.8°C 36.0°F2.2°C 83% 2.0 mph SW3.2 kmh SW 7.0 mph11.3 kmh 29.57 in1001.4 mb 0.00 in0.0 mm 0.00 in0.0 mm 0.11 in2.8 mm
04:19 PM 41.2°F5.1°C 36.5°F2.5°C 83% 2.0 mph SSW3.2 kmh SSW 7.0 mph11.3 kmh 29.57 in1001.4 mb 0.00 in0.0 mm 0.00 in0.0 mm 0.11 in2.8 mm
04:04 PM 41.5°F5.3°C 37.0°F2.8°C 84% 2.0 mph SSW3.2 kmh SSW 8.9 mph14.3 kmh 29.57 in1001.4 mb 0.00 in0.0 mm 0.00 in0.0 mm 0.11 in2.8 mm
03:49 PM 41.9°F5.5°C 37.4°F3.0°C 84% 2.0 mph SW3.2 kmh SW 6.9 mph11.1 kmh 29.57 in1001.4 mb 0.00 in0.0 mm 0.00 in0.0 mm 0.11 in2.8 mm
03:34 PM 42.1°F5.6°C 37.2°F2.9°C 83% 2.0 mph WSW3.2 kmh WSW 8.1 mph13.0 kmh 29.57 in1001.4 mb 0.00 in0.0 mm 0.00 in0.0 mm 0.11 in2.8 mm
03:19 PM 42.4°F5.8°C 37.6°F3.1°C 83% 2.0 mph SSW3.2 kmh SSW 6.9 mph11.1 kmh 29.57 in1001.4 mb 0.00 in0.0 mm 0.00 in0.0 mm 0.11 in2.8 mm
03:04 PM 42.4°F5.8°C 37.4°F3.0°C 82% 2.0 mph WSW3.2 kmh WSW 6.9 mph11.1 kmh 29.57 in1001.4 mb 0.00 in0.0 mm 0.00 in0.0 mm 0.11 in2.8 mm
02:49 PM 42.6°F5.9°C 37.6°F3.1°C 82% 2.0 mph WSW3.2 kmh WSW 4.9 mph7.9 kmh 29.57 in1001.4 mb 0.00 in0.0 mm 0.00 in0.0 mm 0.11 in2.8 mm
02:34 PM 43.3°F6.3°C 37.9°F3.3°C 81% 0.9 mph SW1.4 kmh SW 6.0 mph9.7 kmh 29.57 in1001.4 mb 0.00 in0.0 mm 0.00 in0.0 mm 0.11 in2.8 mm
02:19 PM 43.2°F6.2°C 37.8°F3.2°C 81% 2.0 mph W3.2 kmh W 4.0 mph6.4 kmh 29.58 in1001.7 mb 0.00 in0.0 mm 0.00 in0.0 mm 0.11 in2.8 mm
02:04 PM 42.4°F5.8°C 37.4°F3.0°C 82% 2.9 mph WSW4.7 kmh WSW 7.0 mph11.3 kmh 29.58 in1001.7 mb 0.00 in0.0 mm 0.00 in0.0 mm 0.11 in2.8 mm
01:49 PM 42.3°F5.7°C 37.2°F2.9°C 82% 2.0 mph W3.2 kmh W 9.0 mph14.5 kmh 29.58 in1001.7 mb 0.00 in0.0 mm 0.00 in0.0 mm 0.11 in2.8 mm
01:34 PM 41.9°F5.5°C 36.9°F2.7°C 82% 2.9 mph W4.7 kmh W 8.9 mph14.3 kmh 29.58 in1001.7 mb 0.00 in0.0 mm 0.00 in0.0 mm 0.11 in2.8 mm
01:19 PM 42.4°F5.8°C 37.0°F2.8°C 81% 4.0 mph WSW6.4 kmh WSW 16.1 mph25.9 kmh 29.58 in1001.7 mb 0.00 in0.0 mm 0.00 in0.0 mm 0.11 in2.8 mm
01:04 PM 43.2°F6.2°C 37.8°F3.2°C 81% 2.9 mph WNW4.7 kmh WNW 9.0 mph14.5 kmh 29.58 in1001.7 mb 0.01 in0.3 mm 0.00 in0.0 mm 0.11 in2.8 mm
12:49 PM 43.2°F6.2°C 37.8°F3.2°C 81% 4.9 mph WSW7.9 kmh WSW 13.0 mph20.9 kmh 29.57 in1001.4 mb 0.01 in0.3 mm 0.00 in0.0 mm 0.11 in2.8 mm
12:34 PM 43.3°F6.3°C 38.5°F3.6°C 83% 4.9 mph W7.9 kmh W 12.1 mph19.5 kmh 29.57 in1001.4 mb 0.01 in0.3 mm 0.00 in0.0 mm 0.11 in2.8 mm
12:19 PM 43.5°F6.4°C 38.5°F3.6°C 82% 4.9 mph W7.9 kmh W 15.0 mph24.1 kmh 29.57 in1001.4 mb 0.01 in0.3 mm 0.04 in1.0 mm 0.11 in2.8 mm
12:04 PM 43.5°F6.4°C 38.5°F3.6°C 82% 4.9 mph W7.9 kmh W 17.0 mph27.4 kmh 29.56 in1001.0 mb 0.00 in0.0 mm 0.00 in0.0 mm 0.10 in2.5 mm
11:49 AM 43.7°F6.5°C 40.1°F4.5°C 87% 2.9 mph WNW4.7 kmh WNW 9.0 mph14.5 kmh 29.56 in1001.0 mb 0.00 in0.0 mm 0.00 in0.0 mm 0.10 in2.5 mm
11:34 AM 44.1°F6.7°C 41.0°F5.0°C 89% 4.0 mph W6.4 kmh W 13.0 mph20.9 kmh 29.57 in1001.4 mb 0.00 in0.0 mm 0.00 in0.0 mm 0.10 in2.5 mm
11:19 AM 44.1°F6.7°C 41.4°F5.2°C 90% 2.9 mph WSW4.7 kmh WSW 9.0 mph14.5 kmh 29.56 in1001.0 mb 0.00 in0.0 mm 0.00 in0.0 mm 0.10 in2.5 mm
11:04 AM 44.1°F6.7°C 41.0°F5.0°C 89% 2.9 mph SW4.7 kmh SW 8.9 mph14.3 kmh 29.55 in1000.7 mb 0.00 in0.0 mm 0.00 in0.0 mm 0.10 in2.5 mm
10:49 AM 44.1°F6.7°C 41.0°F5.0°C 89% 2.9 mph SSW4.7 kmh SSW 12.1 mph19.5 kmh 29.54 in1000.3 mb 0.00 in0.0 mm 0.00 in0.0 mm 0.10 in2.5 mm
10:34 AM 44.2°F6.8°C 41.0°F5.0°C 88% 4.0 mph WSW6.4 kmh WSW 10.1 mph16.3 kmh 29.54 in1000.3 mb 0.00 in0.0 mm 0.00 in0.0 mm 0.10 in2.5 mm
10:19 AM 44.2°F6.8°C 40.6°F4.8°C 87% 2.9 mph W4.7 kmh W 10.1 mph16.3 kmh 29.54 in1000.3 mb 0.00 in0.0 mm 0.00 in0.0 mm 0.10 in2.5 mm
10:04 AM 44.1°F6.7°C 40.5°F4.7°C 87% 2.9 mph W4.7 kmh W 12.1 mph19.5 kmh 29.53 in1000.0 mb 0.00 in0.0 mm 0.00 in0.0 mm 0.10 in2.5 mm
09:56 AM 43.9°F6.6°C 40.3°F4.6°C 87% 4.0 mph WSW6.4 kmh WSW 12.1 mph19.5 kmh 29.53 in1000.0 mb 0.00 in0.0 mm 0.00 in0.0 mm 0.10 in2.5 mm
09:41 AM 43.5°F6.4°C 40.5°F4.7°C 89% 2.9 mph WSW4.7 kmh WSW 10.1 mph16.3 kmh 29.53 in1000.0 mb 0.00 in0.0 mm 0.00 in0.0 mm 0.10 in2.5 mm
09:26 AM 43.5°F6.4°C 40.8°F4.9°C 90% 2.0 mph WSW3.2 kmh WSW 8.1 mph13.0 kmh 29.52 in999.7 mb 0.01 in0.3 mm 0.00 in0.0 mm 0.10 in2.5 mm
09:11 AM 43.3°F6.3°C 40.6°F4.8°C 90% 0.9 mph NW1.4 kmh NW 6.0 mph9.7 kmh 29.52 in999.7 mb 0.01 in0.3 mm 0.00 in0.0 mm 0.10 in2.5 mm
08:56 AM 43.7°F6.5°C 41.5°F5.3°C 92% 2.9 mph W4.7 kmh W 12.1 mph19.5 kmh 29.52 in999.7 mb 0.01 in0.3 mm 0.00 in0.0 mm 0.10 in2.5 mm
08:41 AM 44.8°F7.1°C 42.8°F6.0°C 93% 4.9 mph WSW7.9 kmh WSW 15.0 mph24.1 kmh 29.52 in999.7 mb 0.01 in0.3 mm 0.04 in1.0 mm 0.10 in2.5 mm
08:26 AM 46.2°F7.9°C 44.6°F7.0°C 94% 2.9 mph WNW4.7 kmh WNW 11.0 mph17.7 kmh 29.51 in999.3 mb 0.00 in0.0 mm 0.00 in0.0 mm 0.09 in2.3 mm
08:11 AM 46.6°F8.1°C 45.1°F7.3°C 95% 2.9 mph SW4.7 kmh SW 8.9 mph14.3 kmh 29.49 in998.6 mb 0.02 in0.5 mm 0.00 in0.0 mm 0.09 in2.3 mm
07:56 AM 46.8°F8.2°C 45.7°F7.6°C 96% 4.0 mph SW6.4 kmh SW 13.0 mph20.9 kmh 29.49 in998.6 mb 0.03 in0.8 mm 0.00 in0.0 mm 0.09 in2.3 mm
07:40 AM 46.8°F8.2°C 45.7°F7.6°C 96% 4.9 mph SSE7.9 kmh SSE 14.1 mph22.7 kmh 29.49 in998.6 mb 0.04 in1.0 mm 0.00 in0.0 mm 0.09 in2.3 mm
07:25 AM 46.8°F8.2°C 45.7°F7.6°C 96% 4.0 mph SSW6.4 kmh SSW 15.0 mph24.1 kmh 29.49 in998.6 mb 0.05 in1.3 mm 0.08 in2.0 mm 0.09 in2.3 mm
07:10 AM 46.8°F8.2°C 45.7°F7.6°C 96% 4.0 mph S6.4 kmh S 12.1 mph19.5 kmh 29.49 in998.6 mb 0.03 in0.8 mm 0.00 in0.0 mm 0.08 in2.0 mm
06:55 AM 46.8°F8.2°C 45.3°F7.4°C 95% 4.9 mph SSW7.9 kmh SSW 16.1 mph25.9 kmh 29.49 in998.6 mb 0.03 in0.8 mm 0.00 in0.0 mm 0.06 in1.5 mm
06:40 AM 46.6°F8.1°C 45.1°F7.3°C 95% 6.0 mph SW9.7 kmh SW 17.0 mph27.4 kmh 29.49 in998.6 mb 0.04 in1.0 mm 0.00 in0.0 mm 0.06 in1.5 mm
06:25 AM 46.6°F8.1°C 45.1°F7.3°C 95% 4.9 mph S7.9 kmh S 15.0 mph24.1 kmh 29.49 in998.6 mb 0.05 in1.3 mm 0.00 in0.0 mm 0.05 in1.3 mm
06:10 AM 46.6°F8.1°C 45.1°F7.3°C 95% 4.9 mph SSW7.9 kmh SSW 11.0 mph17.7 kmh 29.50 in999.0 mb 0.05 in1.3 mm 0.03 in0.8 mm 0.05 in1.3 mm
05:55 AM 46.6°F8.1°C 45.1°F7.3°C 95% 6.0 mph SE9.7 kmh SE 19.9 mph32.0 kmh 29.50 in999.0 mb 0.03 in0.8 mm 0.04 in1.0 mm 0.03 in0.8 mm
05:40 AM 46.6°F8.1°C 45.1°F7.3°C 95% 4.9 mph SW7.9 kmh SW 17.0 mph27.4 kmh 29.51 in999.3 mb 0.02 in0.5 mm 0.08 in2.0 mm 0.02 in0.5 mm
05:25 AM 46.6°F8.1°C 45.0°F7.2°C 94% 6.0 mph SW9.7 kmh SW 19.0 mph30.6 kmh 29.51 in999.3 mb 0.00 in0.0 mm 0.00 in0.0 mm 0.00 in0.0 mm
05:10 AM 46.6°F8.1°C 44.6°F7.0°C 93% 8.1 mph S13.0 kmh S 24.0 mph38.6 kmh 29.52 in999.7 mb 0.00 in0.0 mm 0.00 in0.0 mm 0.00 in0.0 mm
04:55 AM 46.6°F8.1°C 44.6°F7.0°C 93% 6.9 mph S11.1 kmh S 19.0 mph30.6 kmh 29.52 in999.7 mb 0.00 in0.0 mm 0.00 in0.0 mm 0.00 in0.0 mm
04:40 AM 46.6°F8.1°C 44.1°F6.7°C 91% 8.1 mph S13.0 kmh S 19.0 mph30.6 kmh 29.53 in1000.0 mb 0.00 in0.0 mm 0.00 in0.0 mm 0.00 in0.0 mm
04:25 AM 46.4°F8.0°C 43.9°F6.6°C 91% 8.1 mph S13.0 kmh S 25.9 mph41.7 kmh 29.53 in1000.0 mb 0.00 in0.0 mm 0.00 in0.0 mm 0.00 in0.0 mm
04:10 AM 46.4°F8.0°C 43.7°F6.5°C 90% 8.1 mph S13.0 kmh S 28.0 mph45.1 kmh 29.54 in1000.3 mb 0.00 in0.0 mm 0.00 in0.0 mm 0.00 in0.0 mm
03:55 AM 46.8°F8.2°C 43.7°F6.5°C 89% 6.9 mph S11.1 kmh S 19.0 mph30.6 kmh 29.54 in1000.3 mb 0.00 in0.0 mm 0.00 in0.0 mm 0.00 in0.0 mm
03:40 AM 46.6°F8.1°C 43.2°F6.2°C 88% 8.1 mph S13.0 kmh S 20.0 mph32.2 kmh 29.55 in1000.7 mb 0.00 in0.0 mm 0.00 in0.0 mm 0.00 in0.0 mm
03:25 AM 46.4°F8.0°C 43.0°F6.1°C 88% 8.1 mph SSE13.0 kmh SSE 20.0 mph32.2 kmh 29.56 in1001.0 mb 0.00 in0.0 mm 0.00 in0.0 mm 0.00 in0.0 mm
03:10 AM 46.2°F7.9°C 42.6°F5.9°C 87% 6.9 mph S11.1 kmh S 17.0 mph27.4 kmh 29.57 in1001.4 mb 0.00 in0.0 mm 0.00 in0.0 mm 0.00 in0.0 mm
02:55 AM 46.0°F7.8°C 42.4°F5.8°C 87% 6.9 mph S11.1 kmh S 17.0 mph27.4 kmh 29.58 in1001.7 mb 0.00 in0.0 mm 0.00 in0.0 mm 0.00 in0.0 mm
02:40 AM 46.0°F7.8°C 42.4°F5.8°C 87% 8.1 mph SSW13.0 kmh SSW 18.0 mph29.0 kmh 29.59 in1002.0 mb 0.00 in0.0 mm 0.00 in0.0 mm 0.00 in0.0 mm
02:25 AM 46.0°F7.8°C 42.4°F5.8°C 87% 6.9 mph S11.1 kmh S 19.9 mph32.0 kmh 29.59 in1002.0 mb 0.00 in0.0 mm 0.00 in0.0 mm 0.00 in0.0 mm
02:10 AM 46.0°F7.8°C 42.4°F5.8°C 87% 8.1 mph S13.0 kmh S 18.0 mph29.0 kmh 29.60 in1002.4 mb 0.00 in0.0 mm 0.00 in0.0 mm 0.00 in0.0 mm
01:55 AM 46.0°F7.8°C 42.4°F5.8°C 87% 8.1 mph S13.0 kmh S 17.0 mph27.4 kmh 29.61 in1002.7 mb 0.00 in0.0 mm 0.00 in0.0 mm 0.00 in0.0 mm
01:40 AM 46.2°F7.9°C 42.6°F5.9°C 87% 6.9 mph S11.1 kmh S 21.0 mph33.8 kmh 29.61 in1002.7 mb 0.00 in0.0 mm 0.00 in0.0 mm 0.00 in0.0 mm
01:25 AM 46.2°F7.9°C 42.3°F5.7°C 86% 6.9 mph SW11.1 kmh SW 21.0 mph33.8 kmh 29.62 in1003.0 mb 0.00 in0.0 mm 0.00 in0.0 mm 0.00 in0.0 mm
01:10 AM 46.2°F7.9°C 42.3°F5.7°C 86% 6.9 mph S11.1 kmh S 16.1 mph25.9 kmh 29.63 in1003.4 mb 0.00 in0.0 mm 0.00 in0.0 mm 0.00 in0.0 mm
12:55 AM 46.4°F8.0°C 42.4°F5.8°C 86% 6.9 mph SSW11.1 kmh SSW 15.0 mph24.1 kmh 29.64 in1003.7 mb 0.00 in0.0 mm 0.00 in0.0 mm 0.00 in0.0 mm
12:40 AM 46.6°F8.1°C 42.6°F5.9°C 86% 6.9 mph S11.1 kmh S 16.1 mph25.9 kmh 29.65 in1004.1 mb 0.00 in0.0 mm 0.00 in0.0 mm 0.00 in0.0 mm
12:25 AM 46.6°F8.1°C 42.1°F5.6°C 84% 8.1 mph S13.0 kmh S 16.1 mph25.9 kmh 29.65 in1004.1 mb 0.00 in0.0 mm 0.00 in0.0 mm 0.00 in0.0 mm
12:10 AM 46.6°F8.1°C 41.4°F5.2°C 82% 6.0 mph SSE9.7 kmh SSE 16.1 mph25.9 kmh 29.66 in1004.4 mb 0.00 in0.0 mm 0.00 in0.0 mm 0.00 in0.0 mm